sensor_id;sensor_type;location;lat;lon;timestamp;temperature;humidity
15452;DHT22;7827;53.594;9.938;2023-02-01T00:01:39;5.90;99.90
15452;DHT22;7827;53.594;9.938;2023-02-01T00:04:07;5.90;99.90
15452;DHT22;7827;53.594;9.938;2023-02-01T00:06:36;5.90;99.90
15452;DHT22;7827;53.594;9.938;2023-02-01T00:09:04;5.90;99.90
15452;DHT22;7827;53.594;9.938;2023-02-01T00:11:32;5.90;99.90
15452;DHT22;7827;53.594;9.938;2023-02-01T00:14:01;5.90;99.90
15452;DHT22;7827;53.594;9.938;2023-02-01T00:16:30;5.90;99.90
15452;DHT22;7827;53.594;9.938;2023-02-01T00:19:03;5.90;99.90
15452;DHT22;7827;53.594;9.938;2023-02-01T00:21:33;5.90;99.90
15452;DHT22;7827;53.594;9.938;2023-02-01T00:24:03;5.90;99.90
15452;DHT22;7827;53.594;9.938;2023-02-01T00:26:33;6.00;99.90
15452;DHT22;7827;53.594;9.938;2023-02-01T00:29:05;6.00;99.90
15452;DHT22;7827;53.594;9.938;2023-02-01T00:31:34;5.90;99.90
15452;DHT22;7827;53.594;9.938;2023-02-01T00:34:04;5.90;99.90
15452;DHT22;7827;53.594;9.938;2023-02-01T00:36:34;6.00;99.90
15452;DHT22;7827;53.594;9.938;2023-02-01T00:39:02;6.00;99.90
15452;DHT22;7827;53.594;9.938;2023-02-01T00:41:31;6.00;99.90
15452;DHT22;7827;53.594;9.938;2023-02-01T00:43:59;6.00;99.90
15452;DHT22;7827;53.594;9.938;2023-02-01T00:46:29;6.00;99.90
15452;DHT22;7827;53.594;9.938;2023-02-01T00:48:58;6.10;99.90
15452;DHT22;7827;53.594;9.938;2023-02-01T00:51:29;6.10;99.90
15452;DHT22;7827;53.594;9.938;2023-02-01T00:53:57;6.10;99.90
15452;DHT22;7827;53.594;9.938;2023-02-01T00:56:26;6.20;99.90
15452;DHT22;7827;53.594;9.938;2023-02-01T00:59:01;6.10;99.90
15452;DHT22;7827;53.594;9.938;2023-02-01T01:01:30;6.10;99.90
15452;DHT22;7827;53.594;9.938;2023-02-01T01:03:59;6.20;99.90
15452;DHT22;7827;53.594;9.938;2023-02-01T01:06:31;6.20;99.90
15452;DHT22;7827;53.594;9.938;2023-02-01T01:09:05;6.20;99.90
15452;DHT22;7827;53.594;9.938;2023-02-01T01:11:36;6.20;99.90
15452;DHT22;7827;53.594;9.938;2023-02-01T01:14:07;6.20;99.90
15452;DHT22;7827;53.594;9.938;2023-02-01T01:16:36;6.20;99.90
15452;DHT22;7827;53.594;9.938;2023-02-01T01:19:04;6.20;99.90
15452;DHT22;7827;53.594;9.938;2023-02-01T01:21:35;6.20;99.90
15452;DHT22;7827;53.594;9.938;2023-02-01T01:24:04;6.30;99.90
15452;DHT22;7827;53.594;9.938;2023-02-01T01:26:32;6.30;99.90
15452;DHT22;7827;53.594;9.938;2023-02-01T01:29:00;6.20;99.90
15452;DHT22;7827;53.594;9.938;2023-02-01T01:31:31;6.20;99.90
15452;DHT22;7827;53.594;9.938;2023-02-01T01:33:59;6.20;99.90
15452;DHT22;7827;53.594;9.938;2023-02-01T01:36:29;6.20;99.90
15452;DHT22;7827;53.594;9.938;2023-02-01T01:38:59;6.20;99.90
15452;DHT22;7827;53.594;9.938;2023-02-01T01:41:30;6.20;99.90
15452;DHT22;7827;53.594;9.938;2023-02-01T01:47:32;6.20;99.90
15452;DHT22;7827;53.594;9.938;2023-02-01T01:50:06;6.20;99.90
15452;DHT22;7827;53.594;9.938;2023-02-01T01:52:37;6.20;99.90
15452;DHT22;7827;53.594;9.938;2023-02-01T01:55:09;6.20;99.90
15452;DHT22;7827;53.594;9.938;2023-02-01T01:57:41;6.30;99.90
15452;DHT22;7827;53.594;9.938;2023-02-01T02:00:14;6.20;99.90
15452;DHT22;7827;53.594;9.938;2023-02-01T02:02:48;6.30;99.90
15452;DHT22;7827;53.594;9.938;2023-02-01T02:05:22;6.30;99.90
15452;DHT22;7827;53.594;9.938;2023-02-01T02:07:52;6.30;99.90
15452;DHT22;7827;53.594;9.938;2023-02-01T02:10:26;6.30;99.90
15452;DHT22;7827;53.594;9.938;2023-02-01T02:13:16;6.30;99.90
15452;DHT22;7827;53.594;9.938;2023-02-01T02:15:50;6.30;99.90
15452;DHT22;7827;53.594;9.938;2023-02-01T02:18:36;6.20;99.90
15452;DHT22;7827;53.594;9.938;2023-02-01T02:21:18;6.20;99.90
15452;DHT22;7827;53.594;9.938;2023-02-01T02:24:30;6.20;99.90
15452;DHT22;7827;53.594;9.938;2023-02-01T02:27:19;6.20;99.90
15452;DHT22;7827;53.594;9.938;2023-02-01T02:36:37;6.20;99.90
15452;DHT22;7827;53.594;9.938;2023-02-01T02:39:20;6.20;99.90
15452;DHT22;7827;53.594;9.938;2023-02-01T02:41:57;6.20;99.90
15452;DHT22;7827;53.594;9.938;2023-02-01T02:44:50;6.10;99.90
15452;DHT22;7827;53.594;9.938;2023-02-01T02:47:44;6.20;99.90
15452;DHT22;7827;53.594;9.938;2023-02-01T02:50:24;6.10;99.90
15452;DHT22;7827;53.594;9.938;2023-02-01T02:53:17;6.10;99.90
15452;DHT22;7827;53.594;9.938;2023-02-01T02:56:07;6.10;99.90
15452;DHT22;7827;53.594;9.938;2023-02-01T02:58:55;6.10;99.90
15452;DHT22;7827;53.594;9.938;2023-02-01T03:01:43;6.00;99.90
15452;DHT22;7827;53.594;9.938;2023-02-01T03:04:29;6.00;99.90
15452;DHT22;7827;53.594;9.938;2023-02-01T03:07:12;6.00;99.90
15452;DHT22;7827;53.594;9.938;2023-02-01T03:09:45;5.90;99.90
15452;DHT22;7827;53.594;9.938;2023-02-01T03:12:16;5.90;99.90
15452;DHT22;7827;53.594;9.938;2023-02-01T03:15:08;5.90;99.90
15452;DHT22;7827;53.594;9.938;2023-02-01T03:17:42;5.80;99.90
15452;DHT22;7827;53.594;9.938;2023-02-01T03:20:14;5.80;99.90
15452;DHT22;7827;53.594;9.938;2023-02-01T03:22:48;5.70;99.90
15452;DHT22;7827;53.594;9.938;2023-02-01T03:25:23;5.70;99.90
15452;DHT22;7827;53.594;9.938;2023-02-01T03:27:58;5.70;99.90
15452;DHT22;7827;53.594;9.938;2023-02-01T03:30:34;5.60;99.90
15452;DHT22;7827;53.594;9.938;2023-02-01T03:33:09;5.60;99.90
15452;DHT22;7827;53.594;9.938;2023-02-01T03:35:57;5.50;99.90
15452;DHT22;7827;53.594;9.938;2023-02-01T03:38:33;5.50;99.90
15452;DHT22;7827;53.594;9.938;2023-02-01T03:41:13;5.40;99.90
15452;DHT22;7827;53.594;9.938;2023-02-01T03:43:51;5.30;99.90
15452;DHT22;7827;53.594;9.938;2023-02-01T03:46:27;5.30;99.90
15452;DHT22;7827;53.594;9.938;2023-02-01T03:49:03;5.30;99.90
15452;DHT22;7827;53.594;9.938;2023-02-01T03:51:36;5.30;99.90
15452;DHT22;7827;53.594;9.938;2023-02-01T03:54:11;5.30;99.90
15452;DHT22;7827;53.594;9.938;2023-02-01T03:56:44;5.40;99.90
15452;DHT22;7827;53.594;9.938;2023-02-01T03:59:15;5.40;99.90
15452;DHT22;7827;53.594;9.938;2023-02-01T04:01:44;5.40;99.90
15452;DHT22;7827;53.594;9.938;2023-02-01T04:04:12;5.40;99.90
15452;DHT22;7827;53.594;9.938;2023-02-01T04:06:50;5.40;99.90
15452;DHT22;7827;53.594;9.938;2023-02-01T04:09:20;5.40;99.90
15452;DHT22;7827;53.594;9.938;2023-02-01T04:11:48;5.40;99.90
15452;DHT22;7827;53.594;9.938;2023-02-01T04:14:17;5.40;99.90
15452;DHT22;7827;53.594;9.938;2023-02-01T04:16:45;5.40;99.90
15452;DHT22;7827;53.594;9.938;2023-02-01T04:19:14;5.40;99.90
15452;DHT22;7827;53.594;9.938;2023-02-01T04:21:42;5.40;99.90
15452;DHT22;7827;53.594;9.938;2023-02-01T04:24:11;5.40;99.90
15452;DHT22;7827;53.594;9.938;2023-02-01T04:26:40;5.40;99.90
15452;DHT22;7827;53.594;9.938;2023-02-01T04:29:10;5.40;99.90
15452;DHT22;7827;53.594;9.938;2023-02-01T04:31:38;5.40;99.90
15452;DHT22;7827;53.594;9.938;2023-02-01T04:34:07;5.40;99.90
15452;DHT22;7827;53.594;9.938;2023-02-01T04:36:35;5.40;99.90
15452;DHT22;7827;53.594;9.938;2023-02-01T04:39:04;5.40;99.90
15452;DHT22;7827;53.594;9.938;2023-02-01T04:41:32;5.30;99.90
15452;DHT22;7827;53.594;9.938;2023-02-01T04:44:02;5.30;99.90
15452;DHT22;7827;53.594;9.938;2023-02-01T04:46:30;5.20;99.90
15452;DHT22;7827;53.594;9.938;2023-02-01T04:48:59;5.20;99.90
15452;DHT22;7827;53.594;9.938;2023-02-01T04:51:27;5.20;99.90
15452;DHT22;7827;53.594;9.938;2023-02-01T04:53:56;5.10;99.90
15452;DHT22;7827;53.594;9.938;2023-02-01T04:56:24;5.10;99.90
15452;DHT22;7827;53.594;9.938;2023-02-01T04:58:53;5.10;99.90
15452;DHT22;7827;53.594;9.938;2023-02-01T05:01:23;5.00;99.90
15452;DHT22;7827;53.594;9.938;2023-02-01T05:03:52;4.90;99.90
15452;DHT22;7827;53.594;9.938;2023-02-01T05:06:20;4.90;99.90
15452;DHT22;7827;53.594;9.938;2023-02-01T05:08:49;4.80;99.90
15452;DHT22;7827;53.594;9.938;2023-02-01T05:11:17;4.70;99.90
15452;DHT22;7827;53.594;9.938;2023-02-01T05:14:03;4.60;99.90
15452;DHT22;7827;53.594;9.938;2023-02-01T05:16:33;4.50;99.90
15452;DHT22;7827;53.594;9.938;2023-02-01T05:19:01;4.40;99.90
15452;DHT22;7827;53.594;9.938;2023-02-01T05:21:30;4.20;99.90
15452;DHT22;7827;53.594;9.938;2023-02-01T05:23:58;4.10;99.90
15452;DHT22;7827;53.594;9.938;2023-02-01T05:26:40;4.00;99.90
15452;DHT22;7827;53.594;9.938;2023-02-01T05:29:09;3.90;99.90
15452;DHT22;7827;53.594;9.938;2023-02-01T05:31:39;3.90;99.90
15452;DHT22;7827;53.594;9.938;2023-02-01T05:34:08;3.90;99.90
15452;DHT22;7827;53.594;9.938;2023-02-01T05:36:36;4.00;99.90
15452;DHT22;7827;53.594;9.938;2023-02-01T05:39:05;4.00;99.90
15452;DHT22;7827;53.594;9.938;2023-02-01T05:41:33;3.90;99.90
15452;DHT22;7827;53.594;9.938;2023-02-01T05:44:02;3.90;99.90
15452;DHT22;7827;53.594;9.938;2023-02-01T05:46:30;3.80;99.90
15452;DHT22;7827;53.594;9.938;2023-02-01T05:49:00;3.80;99.90
15452;DHT22;7827;53.594;9.938;2023-02-01T05:51:28;3.80;99.90
15452;DHT22;7827;53.594;9.938;2023-02-01T05:53:57;3.70;99.90
15452;DHT22;7827;53.594;9.938;2023-02-01T05:56:25;3.60;99.90
15452;DHT22;7827;53.594;9.938;2023-02-01T05:58:53;3.70;99.90
15452;DHT22;7827;53.594;9.938;2023-02-01T06:01:22;3.60;99.90
15452;DHT22;7827;53.594;9.938;2023-02-01T06:03:50;3.50;99.90
15452;DHT22;7827;53.594;9.938;2023-02-01T06:06:20;3.50;99.90
15452;DHT22;7827;53.594;9.938;2023-02-01T06:08:48;3.50;99.90
15452;DHT22;7827;53.594;9.938;2023-02-01T06:11:16;3.50;99.90
15452;DHT22;7827;53.594;9.938;2023-02-01T06:13:58;3.50;99.90
15452;DHT22;7827;53.594;9.938;2023-02-01T06:16:27;3.50;99.90
15452;DHT22;7827;53.594;9.938;2023-02-01T06:18:55;3.60;99.90
15452;DHT22;7827;53.594;9.938;2023-02-01T06:21:25;3.60;99.90
15452;DHT22;7827;53.594;9.938;2023-02-01T06:23:54;3.60;99.90
15452;DHT22;7827;53.594;9.938;2023-02-01T06:26:24;3.70;99.90
15452;DHT22;7827;53.594;9.938;2023-02-01T06:28:55;3.80;99.90
15452;DHT22;7827;53.594;9.938;2023-02-01T06:31:24;3.90;99.90
15452;DHT22;7827;53.594;9.938;2023-02-01T06:33:53;3.90;99.90
15452;DHT22;7827;53.594;9.938;2023-02-01T06:36:23;4.00;99.90
15452;DHT22;7827;53.594;9.938;2023-02-01T06:38:52;4.00;99.90
15452;DHT22;7827;53.594;9.938;2023-02-01T06:41:24;4.00;99.90
15452;DHT22;7827;53.594;9.938;2023-02-01T06:43:55;4.10;99.90
15452;DHT22;7827;53.594;9.938;2023-02-01T06:46:24;4.10;99.90
15452;DHT22;7827;53.594;9.938;2023-02-01T06:48:53;4.20;99.90
15452;DHT22;7827;53.594;9.938;2023-02-01T06:51:23;4.20;99.90
15452;DHT22;7827;53.594;9.938;2023-02-01T06:53:55;4.30;99.90
15452;DHT22;7827;53.594;9.938;2023-02-01T06:56:24;4.30;99.90
15452;DHT22;7827;53.594;9.938;2023-02-01T06:58:53;4.40;99.90
15452;DHT22;7827;53.594;9.938;2023-02-01T07:01:21;4.40;99.90
15452;DHT22;7827;53.594;9.938;2023-02-01T07:03:50;4.40;99.90
15452;DHT22;7827;53.594;9.938;2023-02-01T07:06:19;4.50;99.90
15452;DHT22;7827;53.594;9.938;2023-02-01T07:08:49;4.50;99.90
15452;DHT22;7827;53.594;9.938;2023-02-01T07:11:18;4.50;99.90
15452;DHT22;7827;53.594;9.938;2023-02-01T07:13:47;4.50;99.90
15452;DHT22;7827;53.594;9.938;2023-02-01T07:16:18;4.60;99.90
15452;DHT22;7827;53.594;9.938;2023-02-01T07:18:48;4.60;99.90
15452;DHT22;7827;53.594;9.938;2023-02-01T07:21:17;4.60;99.90
15452;DHT22;7827;53.594;9.938;2023-02-01T07:23:46;4.70;99.90
15452;DHT22;7827;53.594;9.938;2023-02-01T07:26:15;4.80;99.90
15452;DHT22;7827;53.594;9.938;2023-02-01T07:28:44;4.90;99.90
15452;DHT22;7827;53.594;9.938;2023-02-01T07:31:15;4.90;99.90
15452;DHT22;7827;53.594;9.938;2023-02-01T07:33:45;4.90;99.90
15452;DHT22;7827;53.594;9.938;2023-02-01T07:36:15;4.70;99.90
15452;DHT22;7827;53.594;9.938;2023-02-01T07:38:44;4.40;99.90
15452;DHT22;7827;53.594;9.938;2023-02-01T07:41:16;4.50;99.90
15452;DHT22;7827;53.594;9.938;2023-02-01T07:43:44;4.40;99.90
15452;DHT22;7827;53.594;9.938;2023-02-01T07:46:13;4.50;99.90
15452;DHT22;7827;53.594;9.938;2023-02-01T07:48:42;4.50;99.90
15452;DHT22;7827;53.594;9.938;2023-02-01T07:51:12;4.60;99.90
15452;DHT22;7827;53.594;9.938;2023-02-01T07:53:43;4.80;99.90
15452;DHT22;7827;53.594;9.938;2023-02-01T07:56:14;4.90;99.90
15452;DHT22;7827;53.594;9.938;2023-02-01T07:58:47;5.00;99.90
15452;DHT22;7827;53.594;9.938;2023-02-01T08:01:16;5.10;99.90
15452;DHT22;7827;53.594;9.938;2023-02-01T08:03:49;5.10;99.90
15452;DHT22;7827;53.594;9.938;2023-02-01T08:06:19;5.20;99.90
15452;DHT22;7827;53.594;9.938;2023-02-01T08:08:48;5.30;99.90
15452;DHT22;7827;53.594;9.938;2023-02-01T08:11:20;5.30;99.90
15452;DHT22;7827;53.594;9.938;2023-02-01T08:13:49;5.30;99.90
15452;DHT22;7827;53.594;9.938;2023-02-01T08:16:20;5.30;99.90
15452;DHT22;7827;53.594;9.938;2023-02-01T08:18:49;5.40;99.90
15452;DHT22;7827;53.594;9.938;2023-02-01T08:21:19;5.40;99.90
15452;DHT22;7827;53.594;9.938;2023-02-01T08:23:49;5.40;99.90
15452;DHT22;7827;53.594;9.938;2023-02-01T08:26:21;5.50;99.90
15452;DHT22;7827;53.594;9.938;2023-02-01T08:28:52;5.50;99.90
15452;DHT22;7827;53.594;9.938;2023-02-01T08:31:24;5.60;99.90
15452;DHT22;7827;53.594;9.938;2023-02-01T08:33:55;5.60;99.90
15452;DHT22;7827;53.594;9.938;2023-02-01T08:36:26;5.70;99.90
15452;DHT22;7827;53.594;9.938;2023-02-01T08:38:56;5.70;99.90
15452;DHT22;7827;53.594;9.938;2023-02-01T08:41:29;5.60;99.90
15452;DHT22;7827;53.594;9.938;2023-02-01T08:43:57;5.50;99.90
15452;DHT22;7827;53.594;9.938;2023-02-01T08:46:26;5.50;99.90
15452;DHT22;7827;53.594;9.938;2023-02-01T08:48:55;5.40;99.90
15452;DHT22;7827;53.594;9.938;2023-02-01T08:51:24;5.40;99.90
15452;DHT22;7827;53.594;9.938;2023-02-01T08:53:52;5.40;99.90
15452;DHT22;7827;53.594;9.938;2023-02-01T08:56:21;5.40;99.90
15452;DHT22;7827;53.594;9.938;2023-02-01T08:58:50;5.40;99.90
15452;DHT22;7827;53.594;9.938;2023-02-01T09:01:19;5.50;99.90
15452;DHT22;7827;53.594;9.938;2023-02-01T09:03:47;5.50;99.90
15452;DHT22;7827;53.594;9.938;2023-02-01T09:06:15;5.50;99.90
15452;DHT22;7827;53.594;9.938;2023-02-01T09:08:44;5.60;99.90
15452;DHT22;7827;53.594;9.938;2023-02-01T09:11:15;5.70;99.90
15452;DHT22;7827;53.594;9.938;2023-02-01T09:13:47;5.70;99.90
15452;DHT22;7827;53.594;9.938;2023-02-01T09:16:18;5.80;99.90
15452;DHT22;7827;53.594;9.938;2023-02-01T09:18:46;5.80;99.90
15452;DHT22;7827;53.594;9.938;2023-02-01T09:21:35;5.90;99.90
15452;DHT22;7827;53.594;9.938;2023-02-01T09:24:04;5.90;99.90
15452;DHT22;7827;53.594;9.938;2023-02-01T09:26:33;6.00;99.90
15452;DHT22;7827;53.594;9.938;2023-02-01T09:29:01;6.10;99.90
15452;DHT22;7827;53.594;9.938;2023-02-01T09:31:31;6.10;99.90
15452;DHT22;7827;53.594;9.938;2023-02-01T09:34:00;6.20;99.90
15452;DHT22;7827;53.594;9.938;2023-02-01T09:36:28;6.20;99.90
15452;DHT22;7827;53.594;9.938;2023-02-01T09:38:58;6.20;99.90
15452;DHT22;7827;53.594;9.938;2023-02-01T09:41:35;6.20;99.90
15452;DHT22;7827;53.594;9.938;2023-02-01T09:44:25;6.20;99.90
15452;DHT22;7827;53.594;9.938;2023-02-01T09:47:13;6.20;99.90
15452;DHT22;7827;53.594;9.938;2023-02-01T09:49:50;6.20;99.90
15452;DHT22;7827;53.594;9.938;2023-02-01T09:52:27;6.30;99.90
15452;DHT22;7827;53.594;9.938;2023-02-01T09:55:00;6.30;99.90
15452;DHT22;7827;53.594;9.938;2023-02-01T09:57:41;6.30;99.90
15452;DHT22;7827;53.594;9.938;2023-02-01T10:00:17;6.40;99.90
15452;DHT22;7827;53.594;9.938;2023-02-01T10:02:54;6.50;99.90
15452;DHT22;7827;53.594;9.938;2023-02-01T10:05:41;6.60;99.90
15452;DHT22;7827;53.594;9.938;2023-02-01T10:08:28;6.60;99.90
15452;DHT22;7827;53.594;9.938;2023-02-01T10:11:16;6.70;99.90
15452;DHT22;7827;53.594;9.938;2023-02-01T10:13:59;6.70;99.90
15452;DHT22;7827;53.594;9.938;2023-02-01T10:16:45;6.70;99.90
15452;DHT22;7827;53.594;9.938;2023-02-01T10:19:29;6.70;99.90
15452;DHT22;7827;53.594;9.938;2023-02-01T10:22:09;6.70;99.90
15452;DHT22;7827;53.594;9.938;2023-02-01T10:24:42;6.70;99.90
15452;DHT22;7827;53.594;9.938;2023-02-01T10:27:19;6.60;99.90
15452;DHT22;7827;53.594;9.938;2023-02-01T10:29:54;6.60;99.90
15452;DHT22;7827;53.594;9.938;2023-02-01T10:32:31;6.60;99.90
15452;DHT22;7827;53.594;9.938;2023-02-01T10:35:11;6.60;99.90
15452;DHT22;7827;53.594;9.938;2023-02-01T10:37:43;6.50;99.90
15452;DHT22;7827;53.594;9.938;2023-02-01T10:40:17;6.40;99.90
15452;DHT22;7827;53.594;9.938;2023-02-01T10:42:50;6.30;99.90
15452;DHT22;7827;53.594;9.938;2023-02-01T10:45:21;6.20;99.90
15452;DHT22;7827;53.594;9.938;2023-02-01T10:47:54;6.20;99.90
15452;DHT22;7827;53.594;9.938;2023-02-01T10:50:33;6.20;99.90
15452;DHT22;7827;53.594;9.938;2023-02-01T10:53:10;6.10;99.90
15452;DHT22;7827;53.594;9.938;2023-02-01T10:55:47;6.10;99.90
15452;DHT22;7827;53.594;9.938;2023-02-01T10:58:18;6.10;99.90
15452;DHT22;7827;53.594;9.938;2023-02-01T11:00:52;6.10;99.90
15452;DHT22;7827;53.594;9.938;2023-02-01T11:03:38;6.10;99.90
15452;DHT22;7827;53.594;9.938;2023-02-01T11:06:19;6.10;99.90
15452;DHT22;7827;53.594;9.938;2023-02-01T11:08:55;6.10;99.90
15452;DHT22;7827;53.594;9.938;2023-02-01T11:11:25;6.10;99.90
15452;DHT22;7827;53.594;9.938;2023-02-01T11:13:56;6.10;99.90
15452;DHT22;7827;53.594;9.938;2023-02-01T11:16:33;6.10;99.90
15452;DHT22;7827;53.594;9.938;2023-02-01T11:19:04;6.10;99.90
15452;DHT22;7827;53.594;9.938;2023-02-01T11:21:34;6.20;99.90
15452;DHT22;7827;53.594;9.938;2023-02-01T11:24:11;6.20;99.90
15452;DHT22;7827;53.594;9.938;2023-02-01T11:26:49;6.30;99.90
15452;DHT22;7827;53.594;9.938;2023-02-01T11:29:20;6.30;99.90
15452;DHT22;7827;53.594;9.938;2023-02-01T13:39:41;5.60;99.90
15452;DHT22;7827;53.594;9.938;2023-02-01T13:42:21;5.60;99.90
15452;DHT22;7827;53.594;9.938;2023-02-01T13:44:56;5.70;99.90
15452;DHT22;7827;53.594;9.938;2023-02-01T13:47:31;5.80;99.90
15452;DHT22;7827;53.594;9.938;2023-02-01T13:50:04;5.80;99.90
15452;DHT22;7827;53.594;9.938;2023-02-01T13:52:44;5.80;99.90
15452;DHT22;7827;53.594;9.938;2023-02-01T13:55:39;5.80;99.90
15452;DHT22;7827;53.594;9.938;2023-02-01T13:58:20;5.70;99.90
15452;DHT22;7827;53.594;9.938;2023-02-01T14:00:50;5.80;99.90
15452;DHT22;7827;53.594;9.938;2023-02-01T14:03:46;5.90;99.90
15452;DHT22;7827;53.594;9.938;2023-02-01T14:06:33;6.00;99.90
15452;DHT22;7827;53.594;9.938;2023-02-01T14:09:32;5.90;99.90
15452;DHT22;7827;53.594;9.938;2023-02-01T14:15:21;5.90;99.90
15452;DHT22;7827;53.594;9.938;2023-02-01T14:17:55;6.10;99.90
15452;DHT22;7827;53.594;9.938;2023-02-01T14:20:45;6.40;99.90
15452;DHT22;7827;53.594;9.938;2023-02-01T14:23:24;6.50;99.90
15452;DHT22;7827;53.594;9.938;2023-02-01T14:26:20;6.40;99.90
15452;DHT22;7827;53.594;9.938;2023-02-01T14:28:56;6.40;99.90
15452;DHT22;7827;53.594;9.938;2023-02-01T14:31:34;6.40;99.90
15452;DHT22;7827;53.594;9.938;2023-02-01T14:34:16;6.30;99.90
15452;DHT22;7827;53.594;9.938;2023-02-01T14:36:51;5.90;99.90
15452;DHT22;7827;53.594;9.938;2023-02-01T14:39:35;5.60;99.90
15452;DHT22;7827;53.594;9.938;2023-02-01T14:42:20;5.40;99.90
15452;DHT22;7827;53.594;9.938;2023-02-01T14:44:54;5.30;99.90
15452;DHT22;7827;53.594;9.938;2023-02-01T14:47:31;5.30;99.90
15452;DHT22;7827;53.594;9.938;2023-02-01T14:50:17;5.30;99.90
15452;DHT22;7827;53.594;9.938;2023-02-01T14:53:10;5.30;99.90
15452;DHT22;7827;53.594;9.938;2023-02-01T14:55:48;5.40;99.90
15452;DHT22;7827;53.594;9.938;2023-02-01T14:58:34;5.30;99.90
15452;DHT22;7827;53.594;9.938;2023-02-01T15:01:17;5.40;99.90
15452;DHT22;7827;53.594;9.938;2023-02-01T15:03:55;5.40;99.90
15452;DHT22;7827;53.594;9.938;2023-02-01T15:06:33;5.40;99.90
15452;DHT22;7827;53.594;9.938;2023-02-01T15:09:10;5.40;99.90
15452;DHT22;7827;53.594;9.938;2023-02-01T15:11:55;5.50;99.90
15452;DHT22;7827;53.594;9.938;2023-02-01T15:14:29;5.50;99.90
15452;DHT22;7827;53.594;9.938;2023-02-01T15:16:58;5.50;99.90
15452;DHT22;7827;53.594;9.938;2023-02-01T15:19:28;5.50;99.90
15452;DHT22;7827;53.594;9.938;2023-02-01T15:21:59;5.40;99.90
15452;DHT22;7827;53.594;9.938;2023-02-01T15:24:29;5.20;99.90
15452;DHT22;7827;53.594;9.938;2023-02-01T15:27:04;5.10;99.90
15452;DHT22;7827;53.594;9.938;2023-02-01T15:29:35;5.00;99.90
15452;DHT22;7827;53.594;9.938;2023-02-01T15:32:03;4.90;99.90
15452;DHT22;7827;53.594;9.938;2023-02-01T15:34:46;4.90;99.90
15452;DHT22;7827;53.594;9.938;2023-02-01T15:37:17;4.90;99.90
15452;DHT22;7827;53.594;9.938;2023-02-01T15:40:19;5.00;99.90
15452;DHT22;7827;53.594;9.938;2023-02-01T15:43:01;5.10;99.90
15452;DHT22;7827;53.594;9.938;2023-02-01T15:45:32;5.20;99.90
15452;DHT22;7827;53.594;9.938;2023-02-01T15:48:01;5.30;99.90
15452;DHT22;7827;53.594;9.938;2023-02-01T15:50:32;5.30;99.90
15452;DHT22;7827;53.594;9.938;2023-02-01T15:53:01;5.30;99.90
15452;DHT22;7827;53.594;9.938;2023-02-01T15:55:36;5.30;99.90
15452;DHT22;7827;53.594;9.938;2023-02-01T15:58:20;5.30;99.90
15452;DHT22;7827;53.594;9.938;2023-02-01T16:00:52;5.30;99.90
15452;DHT22;7827;53.594;9.938;2023-02-01T16:03:35;5.40;99.90
15452;DHT22;7827;53.594;9.938;2023-02-01T16:06:07;5.40;99.90
15452;DHT22;7827;53.594;9.938;2023-02-01T16:08:37;5.30;99.90
15452;DHT22;7827;53.594;9.938;2023-02-01T16:11:25;5.30;99.90
15452;DHT22;7827;53.594;9.938;2023-02-01T16:13:59;5.20;99.90
15452;DHT22;7827;53.594;9.938;2023-02-01T16:16:29;5.20;99.90
15452;DHT22;7827;53.594;9.938;2023-02-01T16:18:57;5.20;99.90
15452;DHT22;7827;53.594;9.938;2023-02-01T16:21:26;5.10;99.90
15452;DHT22;7827;53.594;9.938;2023-02-01T16:23:54;5.10;99.90
15452;DHT22;7827;53.594;9.938;2023-02-01T16:26:22;5.20;99.90
15452;DHT22;7827;53.594;9.938;2023-02-01T16:28:51;5.20;99.90
15452;DHT22;7827;53.594;9.938;2023-02-01T16:31:25;5.10;99.90
15452;DHT22;7827;53.594;9.938;2023-02-01T16:33:57;5.10;99.90
15452;DHT22;7827;53.594;9.938;2023-02-01T16:36:26;5.10;99.90
15452;DHT22;7827;53.594;9.938;2023-02-01T16:38:56;5.20;99.90
15452;DHT22;7827;53.594;9.938;2023-02-01T16:41:25;5.20;99.90
15452;DHT22;7827;53.594;9.938;2023-02-01T16:43:56;5.20;99.90
15452;DHT22;7827;53.594;9.938;2023-02-01T16:46:27;5.20;99.90
15452;DHT22;7827;53.594;9.938;2023-02-01T16:49:00;5.30;99.90
15452;DHT22;7827;53.594;9.938;2023-02-01T16:51:31;5.30;99.90
15452;DHT22;7827;53.594;9.938;2023-02-01T16:54:01;5.40;99.90
15452;DHT22;7827;53.594;9.938;2023-02-01T16:56:31;5.40;99.90
15452;DHT22;7827;53.594;9.938;2023-02-01T16:59:02;5.40;99.90
15452;DHT22;7827;53.594;9.938;2023-02-01T17:01:32;5.40;99.90
15452;DHT22;7827;53.594;9.938;2023-02-01T17:04:00;5.50;99.90
15452;DHT22;7827;53.594;9.938;2023-02-01T17:06:31;5.50;99.90
15452;DHT22;7827;53.594;9.938;2023-02-01T17:09:00;5.60;99.90
15452;DHT22;7827;53.594;9.938;2023-02-01T17:11:30;5.60;99.90
15452;DHT22;7827;53.594;9.938;2023-02-01T17:14:04;5.60;99.90
15452;DHT22;7827;53.594;9.938;2023-02-01T17:16:44;5.70;99.90
15452;DHT22;7827;53.594;9.938;2023-02-01T17:19:16;5.80;99.90
15452;DHT22;7827;53.594;9.938;2023-02-01T17:21:52;5.80;99.90
15452;DHT22;7827;53.594;9.938;2023-02-01T17:24:23;5.80;99.90
15452;DHT22;7827;53.594;9.938;2023-02-01T17:27:12;5.80;99.90
15452;DHT22;7827;53.594;9.938;2023-02-01T17:29:40;5.80;99.90
15452;DHT22;7827;53.594;9.938;2023-02-01T17:32:16;5.90;99.90
15452;DHT22;7827;53.594;9.938;2023-02-01T17:34:47;5.90;99.90
15452;DHT22;7827;53.594;9.938;2023-02-01T17:37:33;5.90;99.90
15452;DHT22;7827;53.594;9.938;2023-02-01T17:40:03;5.90;99.90
15452;DHT22;7827;53.594;9.938;2023-02-01T17:42:32;5.90;99.90
15452;DHT22;7827;53.594;9.938;2023-02-01T17:45:32;5.90;99.90
15452;DHT22;7827;53.594;9.938;2023-02-01T17:48:06;6.00;99.90
15452;DHT22;7827;53.594;9.938;2023-02-01T17:50:36;5.90;99.90
15452;DHT22;7827;53.594;9.938;2023-02-01T17:53:06;5.90;99.90
15452;DHT22;7827;53.594;9.938;2023-02-01T17:55:40;6.00;99.90
15452;DHT22;7827;53.594;9.938;2023-02-01T17:58:10;5.90;99.90
15452;DHT22;7827;53.594;9.938;2023-02-01T18:00:40;6.00;99.90
15452;DHT22;7827;53.594;9.938;2023-02-01T18:03:20;5.90;99.90
15452;DHT22;7827;53.594;9.938;2023-02-01T18:05:51;6.00;99.90
15452;DHT22;7827;53.594;9.938;2023-02-01T18:08:22;6.00;99.90
15452;DHT22;7827;53.594;9.938;2023-02-01T18:10:53;6.00;99.90
15452;DHT22;7827;53.594;9.938;2023-02-01T18:13:25;6.00;99.90
15452;DHT22;7827;53.594;9.938;2023-02-01T18:15:54;5.90;99.90
15452;DHT22;7827;53.594;9.938;2023-02-01T18:18:24;5.90;99.90
15452;DHT22;7827;53.594;9.938;2023-02-01T18:20:54;5.90;99.90
15452;DHT22;7827;53.594;9.938;2023-02-01T18:23:23;5.90;99.90
15452;DHT22;7827;53.594;9.938;2023-02-01T18:25:52;5.90;99.90
15452;DHT22;7827;53.594;9.938;2023-02-01T18:28:20;5.90;99.90
15452;DHT22;7827;53.594;9.938;2023-02-01T18:30:49;5.90;99.90
15452;DHT22;7827;53.594;9.938;2023-02-01T18:33:20;5.90;99.90
15452;DHT22;7827;53.594;9.938;2023-02-01T18:35:50;5.90;99.90
15452;DHT22;7827;53.594;9.938;2023-02-01T18:38:19;5.90;99.90
15452;DHT22;7827;53.594;9.938;2023-02-01T18:40:49;5.90;99.90
15452;DHT22;7827;53.594;9.938;2023-02-01T18:43:19;5.80;99.90
15452;DHT22;7827;53.594;9.938;2023-02-01T18:45:48;5.90;99.90
15452;DHT22;7827;53.594;9.938;2023-02-01T18:48:17;5.90;99.90
15452;DHT22;7827;53.594;9.938;2023-02-01T18:50:49;5.90;99.90
15452;DHT22;7827;53.594;9.938;2023-02-01T18:53:23;5.80;99.90
15452;DHT22;7827;53.594;9.938;2023-02-01T18:55:53;5.90;99.90
15452;DHT22;7827;53.594;9.938;2023-02-01T18:58:23;5.90;99.90
15452;DHT22;7827;53.594;9.938;2023-02-01T19:00:53;5.80;99.90
15452;DHT22;7827;53.594;9.938;2023-02-01T19:03:23;5.90;99.90